Terminal Aerodrome Forecast
Issued by NWS Shreveport, LA

Home | Current Version | Previous Version | Text Only | Print | Product List | Glossary On
Versions: 1 2 3 4 5 6 7 8 9 10 11 12 13 14 15 16 17 18 19 20 21 22 23 24 25 26 27 28 29 30 31
839
FTUS44 KSHV 241747
TAFLFK
TAF
KLFK 241747Z 2418/2518 32007KT P6SM SCT020 BKN050 BKN090
     FM242000 08006KT P6SM VCTS BKN030CB OVC120
     FM250300 06004KT P6SM BKN015
      TEMPO 2509/2512 3SM BR OVC010
     FM251500 07007KT P6SM VCSH OVC015=

USA.gov is the U.S. government's official web portal to all federal, state and local government web resources and services.